Time;durP1;ratioP1;P1;durP2;ratioP2;P2;SDS_P1;SDS_P2;PMS_P1;PMS_P2;Temp;Humidity;BMP_temperature;BMP_pressure;BME280_temperature;BME280_humidity;BME280_pressure;Samples;Min_cycle;Max_cycle;Signal;HPM_P1;HPM_P2
2022/01/06 00:02:07;;;;;;;7.53;1.83;;;;;;;-0.96;86.41;95106.16;5111505;27;20043;-76
2022/01/06 00:04:33;;;;;;;8.45;1.98;;;;;;;-0.90;85.67;95115.66;5111474;27;20448;-77
2022/01/06 00:06:58;;;;;;;5.47;1.75;;;;;;;-0.89;85.42;95122.41;5111714;27;20047;-77
2022/01/06 00:09:24;;;;;;;7.45;2.40;;;;;;;-0.98;86.46;95115.09;5095264;27;20042;-76
2022/01/06 00:11:50;;;;;;;10.90;1.83;;;;;;;-0.91;85.44;95114.06;5121934;27;20071;-77
2022/01/06 00:24:48;;;;;;;3.45;1.58;;;;;;;-0.92;85.56;95133.16;5097852;27;20065;-77
2022/01/06 00:27:14;;;;;;;6.80;1.92;;;;;;;-0.93;85.34;95131.56;5111677;27;20071;-77
2022/01/06 00:29:40;;;;;;;5.50;1.80;;;;;;;-0.95;85.70;95131.00;5108556;28;20178;-76
2022/01/06 00:32:06;;;;;;;3.55;1.40;;;;;;;-0.89;85.23;95127.56;5105238;28;20050;-77
2022/01/06 00:34:32;;;;;;;3.65;1.40;;;;;;;-0.92;85.23;95128.00;5088892;28;20036;-77
2022/01/06 00:36:57;;;;;;;8.50;1.83;;;;;;;-0.94;86.18;95129.97;5108797;27;20050;-77
2022/01/06 00:39:27;;;;;;;7.03;1.92;;;;;;;-0.93;85.97;95115.28;5111186;27;20045;-76
2022/01/06 00:41:56;;;;;;;6.00;2.22;;;;;;;-1.06;86.46;95118.72;5091395;28;20040;-76
2022/01/06 00:44:23;;;;;;;4.10;1.77;;;;;;;-0.87;85.18;95120.41;5100806;28;20547;-76
2022/01/06 00:46:49;;;;;;;7.10;1.88;;;;;;;-0.94;85.99;95126.59;5120891;27;20438;-76
2022/01/06 00:49:17;;;;;;;9.07;1.88;;;;;;;-0.91;85.88;95114.06;5096499;28;20047;-76
2022/01/06 00:51:43;;;;;;;7.10;1.77;;;;;;;-0.88;86.33;95112.84;5097358;28;20122;-76
2022/01/06 00:54:09;;;;;;;6.75;2.20;;;;;;;-0.90;86.01;95120.81;5108314;28;20055;-76
2022/01/06 00:56:34;;;;;;;8.18;1.70;;;;;;;-0.94;86.49;95134.34;5090940;28;20493;-76
2022/01/06 00:59:00;;;;;;;6.22;2.22;;;;;;;-0.97;87.38;95130.38;5119810;27;20043;-76
2022/01/06 01:01:25;;;;;;;8.30;2.45;;;;;;;-0.99;88.35;95137.56;5114934;27;20536;-76
2022/01/06 01:03:51;;;;;;;5.95;1.85;;;;;;;-0.94;88.16;95135.13;5106867;27;20048;-76
2022/01/06 01:06:16;;;;;;;7.50;2.00;;;;;;;-0.93;89.53;95147.06;5115749;27;20050;-76
2022/01/06 01:08:42;;;;;;;8.20;2.58;;;;;;;-1.11;90.53;95139.19;5104388;27;20554;-76
2022/01/06 01:11:08;;;;;;;7.15;1.80;;;;;;;-1.08;91.15;95143.94;5098655;28;20047;-76
2022/01/06 01:13:42;;;;;;;7.88;2.10;;;;;;;-1.14;92.41;95150.72;5109107;28;20511;-76
2022/01/06 01:16:20;;;;;;;9.65;1.80;;;;;;;-1.14;92.84;95149.94;5104185;28;20100;-76
2022/01/06 01:18:46;;;;;;;9.63;2.10;;;;;;;-1.20;94.10;95150.75;5102497;28;20092;-76
2022/01/06 01:21:12;;;;;;;5.55;2.22;;;;;;;-1.14;94.68;95149.94;5093347;28;20048;-76
2022/01/06 01:23:38;;;;;;;7.63;2.13;;;;;;;-1.23;94.22;95155.31;5097926;28;20040;-76
2022/01/06 01:26:03;;;;;;;5.75;1.58;;;;;;;-1.25;95.40;95154.75;5094351;28;20504;-76
2022/01/06 01:28:33;;;;;;;12.15;2.25;;;;;;;-1.19;94.45;95160.06;5098673;28;20393;-77
2022/01/06 01:33:38;;;;;;;6.05;2.10;;;;;;;-1.20;94.99;95146.38;5107051;27;20043;-76
2022/01/06 01:36:03;;;;;;;9.52;2.42;;;;;;;-1.26;94.58;95147.97;5111710;27;20080;-76
2022/01/06 01:38:29;;;;;;;6.47;1.90;;;;;;;-1.23;95.44;95163.06;5101273;28;20497;-76
2022/01/06 01:40:55;;;;;;;5.05;1.88;;;;;;;-1.17;94.78;95163.25;5096806;28;20146;-76
2022/01/06 01:43:20;;;;;;;5.63;1.63;;;;;;;-1.26;94.25;95158.31;5108176;28;20528;-76
2022/01/06 01:45:48;;;;;;;2.10;1.17;;;;;;;-1.28;95.20;95155.16;5094404;28;20075;-76
2022/01/06 01:48:22;;;;;;;9.50;2.40;;;;;;;-1.20;94.79;95166.25;5100845;28;20085;-77
2022/01/06 01:50:48;;;;;;;6.97;2.00;;;;;;;-1.19;94.06;95167.81;5105494;27;20500;-76
2022/01/06 01:53:13;;;;;;;9.63;2.03;;;;;;;-1.22;94.30;95162.06;5107688;27;20043;-76
2022/01/06 01:55:39;;;;;;;7.35;1.83;;;;;;;-1.12;93.29;95163.41;5110676;27;20660;-76
2022/01/06 01:58:06;;;;;;;8.77;1.60;;;;;;;-1.12;94.16;95173.75;5108021;27;20560;-76
2022/01/06 02:00:31;;;;;;;9.85;1.95;;;;;;;-1.09;93.38;95178.53;5095147;28;20539;-76
2022/01/06 02:02:57;;;;;;;4.75;1.73;;;;;;;-1.10;93.46;95172.56;5094413;28;20118;-76
2022/01/06 02:05:27;;;;;;;9.52;1.85;;;;;;;-1.11;92.62;95175.34;5100827;28;20044;-76
2022/01/06 02:07:55;;;;;;;3.95;1.90;;;;;;;-1.06;93.04;95183.28;5095242;28;20082;-77
2022/01/06 02:10:21;;;;;;;12.25;2.33;;;;;;;-1.07;92.59;95172.16;5093757;27;20055;-75
2022/01/06 02:12:49;;;;;;;7.15;2.25;;;;;;;-1.02;92.17;95173.31;5113656;27;20040;-76
2022/01/06 02:15:15;;;;;;;11.52;2.15;;;;;;;-1.02;92.60;95174.13;5089066;28;20036;-76
2022/01/06 02:17:41;;;;;;;8.55;1.77;;;;;;;-1.16;92.37;95172.59;5098156;28;20181;-76
2022/01/06 02:20:10;;;;;;;5.00;1.90;;;;;;;-1.12;93.15;95178.91;5104021;28;20440;-76
2022/01/06 02:22:36;;;;;;;5.68;1.80;;;;;;;-0.93;91.32;95182.44;5103265;28;20160;-76
2022/01/06 02:25:16;;;;;;;6.03;1.85;;;;;;;-1.00;91.30;95187.63;5098986;28;20405;-76
2022/01/06 02:27:44;;;;;;;5.15;1.83;;;;;;;-0.96;91.62;95193.97;5091542;28;20044;-76
2022/01/06 02:30:10;;;;;;;3.42;1.55;;;;;;;-1.02;92.85;95194.81;5103892;28;20036;-76
2022/01/06 02:32:36;;;;;;;7.00;1.92;;;;;;;-1.03;92.66;95198.38;5093062;28;20039;-76
2022/01/06 02:35:04;;;;;;;4.53;1.90;;;;;;;-1.00;92.59;95197.97;5098729;28;20044;-76
2022/01/06 02:37:30;;;;;;;4.30;1.45;;;;;;;-0.97;93.58;95197.53;5106759;28;20051;-76
2022/01/06 02:39:55;;;;;;;7.63;1.73;;;;;;;-0.98;94.00;95198.53;5098185;28;20036;-76
2022/01/06 02:42:21;;;;;;;6.90;1.73;;;;;;;-1.03;93.80;95200.97;5090379;28;20042;-76
2022/01/06 02:44:47;;;;;;;4.55;1.80;;;;;;;-1.00;93.52;95197.97;5100965;28;20116;-76
2022/01/06 02:47:12;;;;;;;10.10;2.22;;;;;;;-1.02;93.81;95199.97;5102692;28;20097;-77
2022/01/06 02:49:38;;;;;;;9.95;2.20;;;;;;;-1.03;92.72;95203.53;5082276;28;20036;-75
2022/01/06 02:52:03;;;;;;;5.78;2.05;;;;;;;-1.02;93.16;95199.97;5091836;28;20074;-76
2022/01/06 02:54:29;;;;;;;3.65;1.80;;;;;;;-0.94;92.60;95207.47;5106967;28;20044;-76
2022/01/06 02:56:55;;;;;;;7.18;1.85;;;;;;;-0.98;93.02;95206.28;5100913;28;20091;-76
2022/01/06 02:59:21;;;;;;;5.00;2.08;;;;;;;-0.94;92.48;95206.69;5088638;28;20044;-76
2022/01/06 03:01:47;;;;;;;5.20;1.80;;;;;;;-0.99;93.09;95204.72;5101611;28;20758;-76
2022/01/06 03:04:12;;;;;;;4.38;1.65;;;;;;;-0.93;91.98;95209.06;5108792;28;20039;-76
2022/01/06 03:06:41;;;;;;;5.53;1.92;;;;;;;-0.88;91.53;95211.84;5093805;28;20043;-76
2022/01/06 03:09:08;;;;;;;5.80;1.70;;;;;;;-0.83;91.02;95207.81;5088139;28;20047;-76
2022/01/06 03:11:39;;;;;;;3.72;1.50;;;;;;;-0.77;91.02;95214.78;5095370;28;20036;-76
2022/01/06 03:14:05;;;;;;;9.43;2.20;;;;;;;-0.84;91.13;95222.53;5109293;28;20055;-76
2022/01/06 03:16:31;;;;;;;7.00;2.13;;;;;;;-0.89;90.77;95220.56;5107141;28;20044;-76
2022/01/06 03:18:56;;;;;;;7.32;2.00;;;;;;;-0.85;90.14;95217.59;5101106;28;20680;-76
2022/01/06 03:21:22;;;;;;;5.85;1.75;;;;;;;-0.81;90.77;95221.34;5109235;28;20046;-76
2022/01/06 03:23:47;;;;;;;3.80;1.60;;;;;;;-0.73;89.66;95228.88;5091827;28;20035;-76
2022/01/06 03:26:12;;;;;;;10.15;2.20;;;;;;;-0.85;90.77;95230.50;5097295;28;20040;-76
2022/01/06 03:28:38;;;;;;;4.22;1.55;;;;;;;-0.76;89.65;95229.25;5104742;28;20093;-75
2022/01/06 03:31:04;;;;;;;6.30;1.70;;;;;;;-0.81;89.61;95235.06;5101996;28;20489;-75
2022/01/06 03:33:29;;;;;;;5.88;1.55;;;;;;;-0.84;89.81;95234.69;5099849;28;20067;-76
2022/01/06 03:35:55;;;;;;;7.25;2.13;;;;;;;-0.76;89.82;95229.25;5100869;27;20069;-76
2022/01/06 03:38:20;;;;;;;3.28;1.80;;;;;;;-0.74;89.76;95235.81;5108616;27;20044;-76
2022/01/06 03:40:46;;;;;;;5.43;2.05;;;;;;;-0.78;90.49;95231.28;5104990;27;20516;-76
2022/01/06 03:43:11;;;;;;;6.88;2.00;;;;;;;-0.78;89.13;95233.84;5103627;28;20599;-76
2022/01/06 03:45:37;;;;;;;6.55;2.08;;;;;;;-0.71;89.63;95237.22;5099710;28;20036;-76
2022/01/06 03:48:05;;;;;;;4.95;1.75;;;;;;;-0.77;88.97;95238.03;5098470;28;20044;-76
2022/01/06 03:50:31;;;;;;;4.05;1.60;;;;;;;-0.77;89.47;95232.88;5102562;28;20044;-76
2022/01/06 03:52:57;;;;;;;8.00;1.88;;;;;;;-0.76;88.70;95234.44;5089121;28;20043;-76
2022/01/06 03:55:22;;;;;;;8.25;1.98;;;;;;;-0.88;89.49;95248.00;5107533;27;20075;-76
2022/01/06 03:57:49;;;;;;;5.63;1.75;;;;;;;-0.76;89.74;95244.75;5118378;27;20489;-76
2022/01/06 04:00:18;;;;;;;4.15;2.05;;;;;;;-0.76;90.20;95242.19;5116981;27;20130;-76
2022/01/06 04:02:44;;;;;;;5.18;1.95;;;;;;;-0.78;89.66;95241.59;5102621;27;20033;-76
2022/01/06 04:05:11;;;;;;;9.85;2.20;;;;;;;-0.71;89.94;95242.38;5098020;28;20093;-76
2022/01/06 04:07:37;;;;;;;6.75;1.60;;;;;;;-0.71;90.12;95250.91;5109442;28;20055;-76
2022/01/06 04:10:05;;;;;;;6.90;2.05;;;;;;;-0.79;90.87;95265.84;5092493;28;20378;-76
2022/01/06 04:12:34;;;;;;;4.25;1.73;;;;;;;-0.78;91.10;95257.09;5092535;28;20074;-76
2022/01/06 04:14:59;;;;;;;4.35;1.80;;;;;;;-0.74;91.31;95258.28;5105102;27;20095;-76
2022/01/06 04:17:25;;;;;;;8.38;2.15;;;;;;;-0.72;91.20;95266.63;5116935;27;20058;-76
2022/01/06 04:19:50;;;;;;;7.60;2.30;;;;;;;-0.74;91.33;95266.81;5107822;27;20054;-76
2022/01/06 04:22:17;;;;;;;7.93;2.33;;;;;;;-0.70;90.10;95259.47;5108517;27;20035;-76
2022/01/06 04:24:42;;;;;;;6.35;2.40;;;;;;;-0.74;90.38;95263.47;5108155;28;20097;-76
2022/01/06 04:27:08;;;;;;;6.15;2.10;;;;;;;-0.68;89.95;95267.81;5108588;28;20061;-75
2022/01/06 04:29:33;;;;;;;3.35;1.42;;;;;;;-0.66;89.97;95265.00;5099594;28;20059;-76
2022/01/06 04:31:59;;;;;;;5.53;1.85;;;;;;;-0.68;89.93;95272.97;5100219;28;20108;-75
2022/01/06 04:34:24;;;;;;;6.22;2.13;;;;;;;-0.80;91.77;95269.44;5109450;27;20051;-76
2022/01/06 04:36:54;;;;;;;5.03;2.58;;;;;;;-0.75;90.62;95272.19;5120135;27;20051;-76
2022/01/06 04:39:19;;;;;;;6.50;1.65;;;;;;;-0.68;90.76;95280.72;5117076;27;20047;-76
2022/01/06 04:41:45;;;;;;;5.57;2.50;;;;;;;-0.69;91.02;95281.72;5104986;28;20039;-76
2022/01/06 04:44:10;;;;;;;7.78;2.67;;;;;;;-0.80;92.21;95287.53;5096361;28;20043;-74
2022/01/06 04:46:37;;;;;;;3.15;1.83;;;;;;;-0.80;92.74;95284.94;5099671;28;20772;-75
2022/01/06 04:49:04;;;;;;;4.05;2.20;;;;;;;-0.79;92.80;95286.53;5092682;28;20048;-76
2022/01/06 04:51:30;;;;;;;3.65;2.10;;;;;;;-0.87;93.78;95290.91;5100274;28;20044;-76
2022/01/06 04:53:56;;;;;;;5.35;1.90;;;;;;;-0.79;93.37;95291.69;5106291;28;20058;-76
2022/01/06 04:56:21;;;;;;;6.97;2.20;;;;;;;-0.84;94.25;95288.94;5099362;28;20470;-76
2022/01/06 04:58:48;;;;;;;5.57;1.90;;;;;;;-0.88;94.58;95291.94;5114543;27;20047;-75
2022/01/06 05:01:13;;;;;;;5.00;2.08;;;;;;;-0.96;95.43;95294.72;5108830;27;20526;-76
2022/01/06 05:03:39;;;;;;;3.90;2.08;;;;;;;-0.88;95.57;95304.84;5098396;28;20040;-76
2022/01/06 05:06:04;;;;;;;9.85;2.38;;;;;;;-0.92;96.81;95310.59;5103092;28;20044;-76
2022/01/06 05:08:30;;;;;;;6.07;1.90;;;;;;;-0.89;97.54;95311.00;5104514;28;20261;-76
2022/01/06 05:10:56;;;;;;;5.38;2.03;;;;;;;-0.90;97.44;95308.63;5089506;28;20046;-76
2022/01/06 05:13:21;;;;;;;4.53;2.45;;;;;;;-0.91;97.55;95305.22;5085860;28;20040;-77
2022/01/06 05:15:47;;;;;;;4.82;2.25;;;;;;;-0.88;97.75;95304.84;5106697;27;20039;-76
2022/01/06 05:18:12;;;;;;;5.18;2.40;;;;;;;-1.03;98.47;95304.28;5098559;28;20047;-76
2022/01/06 05:20:42;;;;;;;3.97;1.58;;;;;;;-1.08;98.84;95304.06;5113710;27;20043;-76
2022/01/06 05:23:08;;;;;;;4.72;1.98;;;;;;;-1.02;99.76;95308.44;5093913;28;20071;-76
2022/01/06 05:25:34;;;;;;;5.32;2.08;;;;;;;-0.96;98.49;95302.47;5099905;28;20121;-76
2022/01/06 05:28:00;;;;;;;5.70;2.50;;;;;;;-1.07;100.00;95303.09;5092592;28;20514;-76
2022/01/06 05:30:25;;;;;;;6.32;2.40;;;;;;;-1.06;99.55;95308.03;5104827;28;20036;-76
2022/01/06 05:32:51;;;;;;;8.40;2.38;;;;;;;-1.05;99.16;95308.81;5109519;27;20477;-76
2022/01/06 05:35:17;;;;;;;8.68;2.40;;;;;;;-1.12;99.67;95302.88;5113303;27;20043;-76
2022/01/06 05:37:42;;;;;;;7.60;1.88;;;;;;;-1.05;99.28;95303.66;5111637;27;20040;-76
2022/01/06 05:40:08;;;;;;;5.97;2.10;;;;;;;-1.05;99.56;95314.00;5099399;28;20044;-75
2022/01/06 05:42:34;;;;;;;5.90;2.60;;;;;;;-1.15;100.00;95303.28;5109576;28;20040;-76
2022/01/06 05:44:59;;;;;;;5.18;1.92;;;;;;;-1.14;99.63;95299.72;5106612;28;20778;-76
2022/01/06 05:47:25;;;;;;;7.00;2.03;;;;;;;-1.11;99.47;95304.47;5091583;28;20048;-75
2022/01/06 05:49:50;;;;;;;3.55;2.00;;;;;;;-1.18;99.79;95303.69;5108404;28;20055;-75
2022/01/06 05:52:17;;;;;;;4.72;2.10;;;;;;;-1.12;99.43;95297.72;5100435;28;20040;-76
2022/01/06 05:54:43;;;;;;;3.97;2.00;;;;;;;-1.15;98.46;95298.13;5102334;27;20055;-76
2022/01/06 05:57:09;;;;;;;6.15;1.70;;;;;;;-1.15;98.88;95313.59;5104516;28;20486;-76
2022/01/06 05:59:34;;;;;;;5.43;2.00;;;;;;;-1.30;100.00;95311.25;5114283;27;20074;-77
2022/01/06 06:02:01;;;;;;;8.57;2.58;;;;;;;-1.33;99.95;95332.31;5093430;28;20048;-75
2022/01/06 06:04:26;;;;;;;3.67;2.20;;;;;;;-1.30;100.00;95337.84;5099788;28;20036;-76
2022/01/06 06:06:52;;;;;;;6.18;2.28;;;;;;;-1.24;99.58;95331.88;5106767;28;20260;-75
2022/01/06 06:09:17;;;;;;;5.93;2.25;;;;;;;-1.13;99.99;95337.47;5091977;28;20040;-76
2022/01/06 06:11:43;;;;;;;3.63;1.80;;;;;;;-1.08;100.00;95335.06;5099158;28;20039;-75
2022/01/06 06:14:08;;;;;;;7.55;2.10;;;;;;;-1.01;98.52;95353.94;5116715;27;20096;-75
2022/01/06 06:16:34;;;;;;;6.10;1.80;;;;;;;-1.08;99.22;95345.38;5101072;28;20075;-75
2022/01/06 06:19:00;;;;;;;3.92;1.67;;;;;;;-1.09;99.62;95349.00;5111131;28;20068;-76
2022/01/06 06:21:25;;;;;;;4.47;1.50;;;;;;;-0.94;97.45;95352.13;5106658;27;20040;-76
2022/01/06 06:23:51;;;;;;;5.10;1.73;;;;;;;-1.02;98.22;95344.59;5096753;28;20118;-76
2022/01/06 06:26:17;;;;;;;6.85;2.17;;;;;;;-1.10;98.43;95348.19;5103125;28;20497;-75
2022/01/06 06:28:42;;;;;;;6.18;2.00;;;;;;;-0.98;98.14;95348.34;5106245;28;20035;-75
2022/01/06 06:31:08;;;;;;;4.32;2.00;;;;;;;-0.96;97.48;95350.75;5108011;28;20054;-75
2022/01/06 06:33:34;;;;;;;10.68;2.50;;;;;;;-0.97;97.37;95352.53;5111327;28;21828;-75
2022/01/06 06:35:59;;;;;;;5.75;2.00;;;;;;;-0.96;97.31;95359.31;5101466;28;20060;-75
2022/01/06 06:38:25;;;;;;;4.63;1.67;;;;;;;-1.00;97.83;95368.44;5103248;27;20060;-76
2022/01/06 06:40:51;;;;;;;4.03;1.90;;;;;;;-0.91;96.28;95372.41;5121593;27;20054;-75
2022/01/06 06:43:16;;;;;;;4.18;1.70;;;;;;;-0.95;97.00;95363.47;5100434;28;20112;-75
2022/01/06 06:45:42;;;;;;;3.92;1.73;;;;;;;-0.98;96.86;95366.44;5107467;28;20046;-76
2022/01/06 06:48:09;;;;;;;6.85;1.67;;;;;;;-0.89;96.22;95375.59;5101098;28;20460;-75
2022/01/06 06:50:34;;;;;;;8.85;2.10;;;;;;;-0.90;95.67;95368.81;5095284;28;20044;-75
2022/01/06 06:53:02;;;;;;;3.75;1.83;;;;;;;-0.96;96.03;95368.81;5109459;28;20767;-75
2022/01/06 06:55:28;;;;;;;3.10;1.73;;;;;;;-1.03;96.46;95368.84;5096026;28;20058;-76
2022/01/06 06:57:54;;;;;;;6.00;1.90;;;;;;;-0.97;96.19;95370.63;5107003;28;20047;-76
2022/01/06 07:00:19;;;;;;;3.03;1.55;;;;;;;-0.92;95.92;95375.19;5113081;27;20100;-76
2022/01/06 07:02:45;;;;;;;7.97;1.80;;;;;;;-1.00;96.24;95385.75;5091718;28;20480;-76
2022/01/06 07:05:11;;;;;;;4.40;1.50;;;;;;;-0.95;96.98;95388.50;5097452;28;20082;-76
2022/01/06 07:07:37;;;;;;;2.55;1.42;;;;;;;-0.99;97.90;95393.28;5111276;28;20718;-75
2022/01/06 07:10:05;;;;;;;5.82;2.13;;;;;;;-1.07;99.40;95403.81;5102454;28;20040;-76
2022/01/06 07:12:30;;;;;;;5.57;1.58;;;;;;;-1.02;100.00;95405.78;5120073;27;20043;-76
2022/01/06 07:15:00;;;;;;;2.00;1.40;;;;;;;-1.02;100.00;95411.78;5119596;27;20047;-76
2022/01/06 07:17:26;;;;;;;2.75;1.70;;;;;;;-1.13;100.00;95402.81;5095789;28;20143;-76
2022/01/06 07:19:51;;;;;;;3.38;1.60;;;;;;;-1.20;100.00;95408.97;5092416;28;20772;-75
2022/01/06 07:22:17;;;;;;;2.40;1.50;;;;;;;-1.23;100.00;95413.53;5088913;28;20519;-76
2022/01/06 07:24:42;;;;;;;5.22;1.92;;;;;;;-1.26;100.00;95416.50;5099245;28;20144;-75
2022/01/06 07:27:08;;;;;;;7.40;1.90;;;;;;;-1.18;100.00;95406.97;5102177;28;20501;-75
2022/01/06 07:29:34;;;;;;;7.03;1.75;;;;;;;-1.20;100.00;95414.13;5100220;27;20036;-74
2022/01/06 07:31:59;;;;;;;3.00;1.80;;;;;;;-1.05;100.00;95427.63;5104978;27;20035;-74
2022/01/06 07:34:25;;;;;;;4.35;2.17;;;;;;;-1.11;100.00;95423.28;5110380;28;20032;-76
2022/01/06 07:36:50;;;;;;;5.60;1.52;;;;;;;-1.20;100.00;95430.41;5113190;28;20043;-78
2022/01/06 07:39:16;;;;;;;6.20;1.92;;;;;;;-1.31;100.00;95439.53;5101676;28;20066;-76
2022/01/06 07:41:41;;;;;;;2.90;1.70;;;;;;;-1.14;100.00;95434.00;5102795;28;20036;-77
2022/01/06 07:44:07;;;;;;;4.18;1.80;;;;;;;-1.24;100.00;95440.34;5080350;28;20050;-77
2022/01/06 07:46:37;;;;;;;4.63;2.13;;;;;;;-1.12;100.00;95447.50;5118685;27;20043;-77
2022/01/06 07:49:03;;;;;;;6.60;2.55;;;;;;;-1.05;100.00;95448.31;5093490;28;20508;-75
2022/01/06 07:51:31;;;;;;;6.18;2.40;;;;;;;-1.08;100.00;95443.53;5111504;28;20423;-77
2022/01/06 07:54:00;;;;;;;25.88;3.08;;;;;;;-1.12;100.00;95444.91;5110432;27;20055;-75
2022/01/06 07:56:26;;;;;;;14.63;2.42;;;;;;;-1.07;100.00;95445.13;5118463;27;20050;-76
2022/01/06 07:58:53;;;;;;;8.77;2.47;;;;;;;-1.10;100.00;95445.53;5106457;28;20455;-76
2022/01/06 08:01:18;;;;;;;5.47;1.70;;;;;;;-1.03;100.00;95451.50;5108126;27;20036;-77
2022/01/06 08:03:44;;;;;;;10.63;1.80;;;;;;;-0.97;100.00;95461.03;5100010;27;20035;-77
2022/01/06 08:06:11;;;;;;;7.18;2.35;;;;;;;-0.99;100.00;95446.72;5122915;27;20078;-78
2022/01/06 08:08:36;;;;;;;3.95;2.00;;;;;;;-1.04;100.00;95455.06;5116723;27;20043;-78
2022/01/06 08:11:03;;;;;;;6.32;2.38;;;;;;;-0.99;100.00;95463.03;5094419;28;20044;-77
2022/01/06 08:13:28;;;;;;;17.70;2.90;;;;;;;-0.97;100.00;95466.19;5105917;27;20424;-77
2022/01/06 08:15:54;;;;;;;3.10;1.70;;;;;;;-1.01;100.00;95465.00;5118161;27;20042;-76
2022/01/06 08:18:20;;;;;;;10.38;2.40;;;;;;;-1.02;100.00;95468.59;5109024;27;20047;-78
2022/01/06 08:20:45;;;;;;;10.00;2.50;;;;;;;-0.99;100.00;95473.38;5111720;28;20071;-73
2022/01/06 08:23:11;;;;;;;18.25;2.55;;;;;;;-0.96;100.00;95470.38;5105687;28;20036;-74
2022/01/06 08:25:37;;;;;;;6.60;1.90;;;;;;;-0.87;98.47;95466.59;5112936;27;20039;-76
2022/01/06 08:28:03;;;;;;;7.18;2.17;;;;;;;-0.89;97.74;95460.84;5110315;28;20390;-75
2022/01/06 08:30:29;;;;;;;8.07;1.92;;;;;;;-0.96;98.83;95465.22;5110990;28;20512;-74
2022/01/06 08:32:55;;;;;;;5.18;2.38;;;;;;;-0.79;97.88;95463.03;5108092;27;20043;-75
2022/01/06 08:35:24;;;;;;;6.72;1.70;;;;;;;-0.78;98.04;95466.41;5117407;27;20424;-75
2022/01/06 08:37:50;;;;;;;7.50;2.42;;;;;;;-0.76;97.28;95456.66;5079445;28;20114;-76
2022/01/06 08:40:16;;;;;;;3.58;1.77;;;;;;;-0.77;98.22;95455.09;5105409;28;20180;-76
2022/01/06 08:42:42;;;;;;;6.93;2.47;;;;;;;-0.79;98.29;95467.41;5115458;27;20114;-76
2022/01/06 08:45:08;;;;;;;5.05;2.28;;;;;;;-0.80;98.03;95478.75;5109331;27;20476;-74
2022/01/06 08:47:34;;;;;;;6.05;2.30;;;;;;;-0.85;98.62;95479.31;5102511;27;20040;-76
2022/01/06 08:50:00;;;;;;;5.18;2.00;;;;;;;-0.75;98.82;95486.69;5106252;28;20513;-75
2022/01/06 08:52:26;;;;;;;8.65;2.40;;;;;;;-0.75;97.78;95484.09;5098471;28;20412;-76
2022/01/06 08:54:52;;;;;;;4.82;2.15;;;;;;;-0.72;97.90;95494.03;5112839;27;20046;-76
2022/01/06 08:57:18;;;;;;;4.88;2.10;;;;;;;-0.76;97.93;95498.00;5103099;27;20036;-76
2022/01/06 08:59:44;;;;;;;4.75;2.15;;;;;;;-0.71;97.59;95496.41;5108305;28;20036;-76
2022/01/06 09:02:10;;;;;;;3.10;1.92;;;;;;;-0.57;96.62;95492.06;5107198;28;20044;-78
2022/01/06 09:04:36;;;;;;;5.40;2.40;;;;;;;-0.64;96.29;95501.59;5095716;27;20075;-77
2022/01/06 09:07:03;;;;;;;7.32;2.72;;;;;;;-0.57;96.13;95494.63;5078748;28;20057;-78
2022/01/06 09:09:30;;;;;;;6.55;2.30;;;;;;;-0.61;97.49;95498.63;5106212;27;20397;-78
2022/01/06 09:11:55;;;;;;;4.45;2.28;;;;;;;-0.45;96.22;95499.22;5096847;28;20478;-78
2022/01/06 09:14:22;;;;;;;8.27;2.63;;;;;;;-0.26;96.56;95498.41;5092367;28;20040;-77
2022/01/06 09:16:49;;;;;;;4.72;1.95;;;;;;;-0.24;95.00;95491.22;5099637;28;20036;-77
2022/01/06 09:19:15;;;;;;;4.72;2.15;;;;;;;-0.14;94.33;95495.19;5091394;28;20051;-79
2022/01/06 09:21:41;;;;;;;5.20;2.38;;;;;;;-0.13;94.23;95497.59;5097363;28;20428;-78
2022/01/06 09:24:07;;;;;;;7.18;2.97;;;;;;;-0.06;94.33;95492.38;5098234;28;20416;-77
2022/01/06 09:26:37;;;;;;;5.68;2.25;;;;;;;-0.14;94.69;95490.81;5103358;28;20044;-78
2022/01/06 09:29:05;;;;;;;6.75;2.40;;;;;;;-0.02;95.27;95498.75;5102947;28;20048;-78
2022/01/06 09:31:31;;;;;;;7.32;3.28;;;;;;;0.05;94.23;95494.34;5098754;28;20067;-77
2022/01/06 09:33:57;;;;;;;6.75;2.60;;;;;;;0.06;94.26;95501.13;5102813;28;20039;-78
2022/01/06 09:36:22;;;;;;;6.05;2.80;;;;;;;0.24;93.72;95507.44;5095398;28;20044;-77
2022/01/06 09:38:48;;;;;;;6.78;2.33;;;;;;;0.38;94.07;95511.56;5096344;28;20601;-77
2022/01/06 09:41:14;;;;;;;8.52;3.05;;;;;;;0.55;94.12;95513.69;5101261;28;20071;-78
2022/01/06 09:43:41;;;;;;;7.05;2.78;;;;;;;0.66;91.95;95515.63;5091465;28;20722;-78
2022/01/06 09:46:08;;;;;;;10.15;3.05;;;;;;;0.56;90.94;95526.47;5102945;28;20043;-78
2022/01/06 09:48:36;;;;;;;6.55;2.30;;;;;;;0.52;92.64;95523.47;5103291;28;20405;-77
2022/01/06 09:51:03;;;;;;;7.03;2.75;;;;;;;0.50;92.87;95528.06;5106474;28;20044;-77
2022/01/06 09:53:28;;;;;;;7.63;2.75;;;;;;;0.36;94.16;95520.53;5103951;28;20048;-78
2022/01/06 09:55:54;;;;;;;5.60;2.50;;;;;;;0.41;92.51;95524.09;5076392;28;20044;-76
2022/01/06 09:58:28;;;;;;;8.57;2.88;;;;;;;1.64;87.53;95526.59;5103129;28;20116;-77
2022/01/06 10:00:55;;;;;;;;;;;;;;;2.44;82.71;95523.22;5090438;28;20536;-77
2022/01/06 10:03:32;;;;;;;9.25;2.80;;;;;;;3.59;77.31;95521.50;5077942;28;19924;-77
2022/01/06 10:06:12;;;;;;;4.38;2.13;;;;;;;4.04;73.38;95521.94;5107876;28;20047;-75
2022/01/06 10:08:38;;;;;;;5.53;2.63;;;;;;;3.69;75.04;95530.53;5110054;27;20120;-78
2022/01/06 10:11:12;;;;;;;9.20;2.90;;;;;;;4.24;74.82;95530.22;5106350;28;20039;-77
2022/01/06 10:13:38;;;;;;;6.70;2.43;;;;;;;3.43;75.39;95528.16;5093385;28;20051;-77
2022/01/06 10:16:18;;;;;;;6.20;2.42;;;;;;;2.32;81.56;95527.56;5095522;28;20279;-78
2022/01/06 10:19:16;;;;;;;7.22;2.90;;;;;;;3.59;77.04;95536.31;5098949;28;20043;-76
2022/01/06 10:21:44;;;;;;;6.30;2.60;;;;;;;3.18;76.64;95541.31;5057413;28;20060;-77
2022/01/06 10:24:15;;;;;;;5.20;2.35;;;;;;;2.37;81.08;95545.88;5088523;28;20047;-75
2022/01/06 10:27:10;;;;;;;10.80;2.60;;;;;;;1.81;83.87;95548.41;5099671;28;20047;-76
2022/01/06 10:29:37;;;;;;;;;;;;;;;1.47;83.75;95553.06;5085711;28;20497;-76
2022/01/06 10:32:06;;;;;;;6.82;2.70;;;;;;;1.20;85.68;95548.03;5100575;28;19959;-75
2022/01/06 10:34:33;;;;;;;4.68;2.35;;;;;;;1.18;85.54;95550.06;5094816;28;20047;-76
2022/01/06 10:37:00;;;;;;;10.65;2.80;;;;;;;1.23;86.82;95548.66;5101389;28;20044;-76
2022/01/06 10:39:27;;;;;;;7.50;2.70;;;;;;;1.11;87.20;95549.31;5099822;28;20052;-75
2022/01/06 10:41:52;;;;;;;4.93;2.58;;;;;;;1.36;86.22;95551.13;5099850;28;20476;-75
2022/01/06 10:44:18;;;;;;;10.20;3.08;;;;;;;1.41;86.22;95568.66;5102795;28;20145;-75
2022/01/06 10:46:44;;;;;;;7.53;2.75;;;;;;;1.23;86.27;95566.78;5099029;28;20054;-76
2022/01/06 10:49:19;;;;;;;7.32;3.15;;;;;;;1.05;87.66;95560.50;5088945;28;20414;-76
2022/01/06 10:51:49;;;;;;;8.65;3.00;;;;;;;1.11;88.87;95577.03;5094435;28;20043;-77
2022/01/06 10:54:24;;;;;;;9.05;3.00;;;;;;;1.17;86.34;95574.38;5096547;28;20032;-77
2022/01/06 10:57:11;;;;;;;8.98;3.17;;;;;;;1.00;87.08;95574.06;5102452;28;20039;-76
2022/01/06 10:59:37;;;;;;;6.05;2.67;;;;;;;0.87;86.57;95579.31;5104552;28;20047;-76
2022/01/06 11:02:05;;;;;;;8.35;2.90;;;;;;;0.75;87.57;95584.34;5093865;28;20049;-74
2022/01/06 11:04:31;;;;;;;5.82;2.85;;;;;;;0.84;87.97;95575.34;5089472;28;20043;-74
2022/01/06 11:06:56;;;;;;;7.63;2.67;;;;;;;0.73;87.37;95575.97;5088906;28;20040;-74
2022/01/06 11:09:22;;;;;;;9.35;2.97;;;;;;;0.72;89.16;95577.00;5088074;28;20051;-74
2022/01/06 11:14:44;;;;;;;8.75;3.30;;;;;;;0.79;88.75;95588.13;5083569;28;20048;-77
2022/01/06 11:17:10;;;;;;;7.57;2.88;;;;;;;0.68;88.84;95575.81;5109105;28;20045;-76
2022/01/06 11:19:35;;;;;;;6.40;3.10;;;;;;;0.67;89.72;95585.38;5103342;28;20122;-77
2022/01/06 11:22:04;;;;;;;8.45;3.55;;;;;;;0.66;89.51;95583.78;5092598;28;20559;-76
2022/01/06 11:24:30;;;;;;;7.32;3.30;;;;;;;0.24;92.98;95590.28;5111743;28;20424;-75
2022/01/06 11:27:08;;;;;;;8.40;3.42;;;;;;;-0.02;98.04;95603.03;5114914;28;20046;-76
2022/01/06 11:29:40;;;;;;;12.30;4.05;;;;;;;-0.29;100.00;95597.06;5110228;28;20039;-76
2022/01/06 11:32:26;;;;;;;7.93;3.53;;;;;;;-0.46;100.00;95594.09;5094090;28;20044;-76
2022/01/06 11:35:11;;;;;;;11.45;3.72;;;;;;;-0.31;100.00;95593.88;5092312;28;20060;-77
2022/01/06 11:37:47;;;;;;;14.15;3.83;;;;;;;-0.31;100.00;95588.72;5103648;27;20126;-77
2022/01/06 11:40:15;;;;;;;9.18;3.58;;;;;;;-0.20;100.00;95588.13;5100769;28;20549;-78
2022/01/06 11:42:53;;;;;;;9.63;3.55;;;;;;;-0.09;100.00;95588.50;5106803;28;20059;-76
2022/01/06 11:45:19;;;;;;;8.18;3.50;;;;;;;0.08;100.00;95581.13;5077215;28;20040;-76
2022/01/06 11:47:44;;;;;;;6.60;3.35;;;;;;;0.03;100.00;95584.34;5120920;27;20040;-77
2022/01/06 11:50:14;;;;;;;12.68;4.32;;;;;;;0.09;100.00;95586.13;5087520;28;20047;-77